sensor_id;sensor_type;location;lat;lon;timestamp;temperature;humidity
74336;DHT22;62755;-33.398;-70.572;2022-09-09T00:01:29;10.90;53.80
74336;DHT22;62755;-33.398;-70.572;2022-09-09T00:04:15;10.90;54.60
74336;DHT22;62755;-33.398;-70.572;2022-09-09T00:06:50;10.80;54.80
74336;DHT22;62755;-33.398;-70.572;2022-09-09T00:09:26;10.80;54.80
74336;DHT22;62755;-33.398;-70.572;2022-09-09T00:12:02;10.80;54.30
74336;DHT22;62755;-33.398;-70.572;2022-09-09T00:14:39;10.80;54.30
74336;DHT22;62755;-33.398;-70.572;2022-09-09T00:17:14;10.70;54.00
74336;DHT22;62755;-33.398;-70.572;2022-09-09T00:19:50;10.70;54.10
74336;DHT22;62755;-33.398;-70.572;2022-09-09T00:22:23;10.60;54.40
74336;DHT22;62755;-33.398;-70.572;2022-09-09T00:25:01;10.50;54.30
74336;DHT22;62755;-33.398;-70.572;2022-09-09T00:27:35;10.40;54.50
74336;DHT22;62755;-33.398;-70.572;2022-09-09T00:30:16;10.40;54.70
74336;DHT22;62755;-33.398;-70.572;2022-09-09T00:32:46;10.40;55.00
74336;DHT22;62755;-33.398;-70.572;2022-09-09T00:35:21;10.40;54.50
74336;DHT22;62755;-33.398;-70.572;2022-09-09T00:37:54;10.40;54.60
74336;DHT22;62755;-33.398;-70.572;2022-09-09T00:40:32;10.50;54.90
74336;DHT22;62755;-33.398;-70.572;2022-09-09T00:43:17;10.50;54.80
74336;DHT22;62755;-33.398;-70.572;2022-09-09T00:46:10;10.60;55.20
74336;DHT22;62755;-33.398;-70.572;2022-09-09T00:48:50;10.60;54.80
74336;DHT22;62755;-33.398;-70.572;2022-09-09T00:51:28;10.60;55.00
74336;DHT22;62755;-33.398;-70.572;2022-09-09T00:54:23;10.60;54.80
74336;DHT22;62755;-33.398;-70.572;2022-09-09T00:57:10;10.60;55.10
74336;DHT22;62755;-33.398;-70.572;2022-09-09T00:59:47;10.70;55.10
74336;DHT22;62755;-33.398;-70.572;2022-09-09T01:02:28;10.70;54.80
74336;DHT22;62755;-33.398;-70.572;2022-09-09T01:05:04;10.70;55.00
74336;DHT22;62755;-33.398;-70.572;2022-09-09T01:07:36;10.70;55.00
74336;DHT22;62755;-33.398;-70.572;2022-09-09T01:10:14;10.80;54.80
74336;DHT22;62755;-33.398;-70.572;2022-09-09T01:12:55;10.80;55.00
74336;DHT22;62755;-33.398;-70.572;2022-09-09T01:15:27;10.80;54.70
74336;DHT22;62755;-33.398;-70.572;2022-09-09T01:18:02;10.80;54.60
74336;DHT22;62755;-33.398;-70.572;2022-09-09T01:20:43;10.80;54.50
74336;DHT22;62755;-33.398;-70.572;2022-09-09T01:23:33;10.70;54.70
74336;DHT22;62755;-33.398;-70.572;2022-09-09T01:26:18;10.70;54.90
74336;DHT22;62755;-33.398;-70.572;2022-09-09T01:28:50;10.70;54.90
74336;DHT22;62755;-33.398;-70.572;2022-09-09T01:31:29;10.70;54.60
74336;DHT22;62755;-33.398;-70.572;2022-09-09T01:34:00;10.70;54.80
74336;DHT22;62755;-33.398;-70.572;2022-09-09T01:36:37;10.60;54.70
74336;DHT22;62755;-33.398;-70.572;2022-09-09T01:39:08;10.60;55.30
74336;DHT22;62755;-33.398;-70.572;2022-09-09T01:41:40;10.50;55.20
74336;DHT22;62755;-33.398;-70.572;2022-09-09T01:44:10;10.50;55.40
74336;DHT22;62755;-33.398;-70.572;2022-09-09T01:46:40;10.50;55.20
74336;DHT22;62755;-33.398;-70.572;2022-09-09T01:49:10;10.40;55.30
74336;DHT22;62755;-33.398;-70.572;2022-09-09T01:51:40;10.40;55.30
74336;DHT22;62755;-33.398;-70.572;2022-09-09T01:54:12;10.30;55.30
74336;DHT22;62755;-33.398;-70.572;2022-09-09T01:56:47;10.20;55.50
74336;DHT22;62755;-33.398;-70.572;2022-09-09T01:59:53;10.10;56.20
74336;DHT22;62755;-33.398;-70.572;2022-09-09T02:02:32;10.00;56.90
74336;DHT22;62755;-33.398;-70.572;2022-09-09T02:05:09;10.00;56.50
74336;DHT22;62755;-33.398;-70.572;2022-09-09T02:07:42;10.00;56.60
74336;DHT22;62755;-33.398;-70.572;2022-09-09T02:10:16;10.00;56.50
74336;DHT22;62755;-33.398;-70.572;2022-09-09T02:12:50;10.00;56.90
74336;DHT22;62755;-33.398;-70.572;2022-09-09T02:15:29;10.00;56.80
74336;DHT22;62755;-33.398;-70.572;2022-09-09T02:18:03;10.00;56.60
74336;DHT22;62755;-33.398;-70.572;2022-09-09T02:20:37;10.00;56.80
74336;DHT22;62755;-33.398;-70.572;2022-09-09T02:23:08;9.90;57.10
74336;DHT22;62755;-33.398;-70.572;2022-09-09T02:25:41;9.90;57.90
74336;DHT22;62755;-33.398;-70.572;2022-09-09T02:28:15;10.00;57.40
74336;DHT22;62755;-33.398;-70.572;2022-09-09T02:30:47;10.00;57.40
74336;DHT22;62755;-33.398;-70.572;2022-09-09T02:33:24;10.00;56.90
74336;DHT22;62755;-33.398;-70.572;2022-09-09T02:35:57;10.10;57.00
74336;DHT22;62755;-33.398;-70.572;2022-09-09T02:38:34;10.10;56.80
74336;DHT22;62755;-33.398;-70.572;2022-09-09T02:41:05;10.20;56.80
74336;DHT22;62755;-33.398;-70.572;2022-09-09T02:43:36;10.20;56.40
74336;DHT22;62755;-33.398;-70.572;2022-09-09T02:46:12;10.00;56.50
74336;DHT22;62755;-33.398;-70.572;2022-09-09T02:48:51;10.00;57.00
74336;DHT22;62755;-33.398;-70.572;2022-09-09T02:51:33;9.90;57.90
74336;DHT22;62755;-33.398;-70.572;2022-09-09T02:54:10;9.80;57.80
74336;DHT22;62755;-33.398;-70.572;2022-09-09T02:56:47;9.90;57.90
74336;DHT22;62755;-33.398;-70.572;2022-09-09T02:59:21;10.00;57.50
74336;DHT22;62755;-33.398;-70.572;2022-09-09T03:01:51;10.00;57.20
74336;DHT22;62755;-33.398;-70.572;2022-09-09T03:04:20;10.00;56.90
74336;DHT22;62755;-33.398;-70.572;2022-09-09T03:06:50;10.00;56.80
74336;DHT22;62755;-33.398;-70.572;2022-09-09T03:09:19;10.00;56.80
74336;DHT22;62755;-33.398;-70.572;2022-09-09T03:11:49;10.10;56.90
74336;DHT22;62755;-33.398;-70.572;2022-09-09T03:14:20;10.00;56.90
74336;DHT22;62755;-33.398;-70.572;2022-09-09T03:16:52;10.10;56.90
74336;DHT22;62755;-33.398;-70.572;2022-09-09T03:19:23;10.00;56.60
74336;DHT22;62755;-33.398;-70.572;2022-09-09T03:21:53;10.00;56.80
74336;DHT22;62755;-33.398;-70.572;2022-09-09T03:24:24;10.00;56.80
74336;DHT22;62755;-33.398;-70.572;2022-09-09T03:26:53;10.00;56.70
74336;DHT22;62755;-33.398;-70.572;2022-09-09T03:29:25;10.00;56.60
74336;DHT22;62755;-33.398;-70.572;2022-09-09T03:31:54;10.00;56.60
74336;DHT22;62755;-33.398;-70.572;2022-09-09T03:34:24;10.00;56.60
74336;DHT22;62755;-33.398;-70.572;2022-09-09T03:36:54;10.00;56.60
74336;DHT22;62755;-33.398;-70.572;2022-09-09T03:39:23;9.80;56.70
74336;DHT22;62755;-33.398;-70.572;2022-09-09T03:41:54;9.90;56.80
74336;DHT22;62755;-33.398;-70.572;2022-09-09T03:44:26;9.90;56.90
74336;DHT22;62755;-33.398;-70.572;2022-09-09T03:46:55;9.80;57.00
74336;DHT22;62755;-33.398;-70.572;2022-09-09T03:49:27;9.80;57.00
74336;DHT22;62755;-33.398;-70.572;2022-09-09T03:51:57;9.80;56.90
74336;DHT22;62755;-33.398;-70.572;2022-09-09T03:54:28;9.80;56.90
74336;DHT22;62755;-33.398;-70.572;2022-09-09T03:56:57;9.80;57.10
74336;DHT22;62755;-33.398;-70.572;2022-09-09T03:59:29;9.70;56.90
74336;DHT22;62755;-33.398;-70.572;2022-09-09T04:01:58;9.70;57.10
74336;DHT22;62755;-33.398;-70.572;2022-09-09T04:04:28;9.80;57.40
74336;DHT22;62755;-33.398;-70.572;2022-09-09T04:06:58;9.90;56.80
74336;DHT22;62755;-33.398;-70.572;2022-09-09T04:09:27;10.00;56.70
74336;DHT22;62755;-33.398;-70.572;2022-09-09T04:11:57;10.00;56.40
74336;DHT22;62755;-33.398;-70.572;2022-09-09T04:14:28;10.00;56.20
74336;DHT22;62755;-33.398;-70.572;2022-09-09T04:16:58;10.00;56.00
74336;DHT22;62755;-33.398;-70.572;2022-09-09T04:19:28;10.00;56.30
74336;DHT22;62755;-33.398;-70.572;2022-09-09T04:21:58;10.10;56.20
74336;DHT22;62755;-33.398;-70.572;2022-09-09T04:24:28;10.10;55.80
74336;DHT22;62755;-33.398;-70.572;2022-09-09T04:26:57;10.00;55.90
74336;DHT22;62755;-33.398;-70.572;2022-09-09T04:29:29;10.00;55.80
74336;DHT22;62755;-33.398;-70.572;2022-09-09T04:31:58;9.80;55.90
74336;DHT22;62755;-33.398;-70.572;2022-09-09T04:34:28;9.80;55.80
74336;DHT22;62755;-33.398;-70.572;2022-09-09T04:36:58;9.70;55.70
74336;DHT22;62755;-33.398;-70.572;2022-09-09T04:39:28;9.30;56.30
74336;DHT22;62755;-33.398;-70.572;2022-09-09T04:41:57;9.00;57.10
74336;DHT22;62755;-33.398;-70.572;2022-09-09T04:44:29;9.00;57.40
74336;DHT22;62755;-33.398;-70.572;2022-09-09T04:46:58;9.00;57.40
74336;DHT22;62755;-33.398;-70.572;2022-09-09T04:49:28;9.00;57.40
74336;DHT22;62755;-33.398;-70.572;2022-09-09T04:51:58;9.00;57.40
74336;DHT22;62755;-33.398;-70.572;2022-09-09T04:54:28;9.10;57.30
74336;DHT22;62755;-33.398;-70.572;2022-09-09T04:56:57;9.20;57.20
74336;DHT22;62755;-33.398;-70.572;2022-09-09T04:59:30;9.20;57.20
74336;DHT22;62755;-33.398;-70.572;2022-09-09T05:01:59;9.20;57.20
74336;DHT22;62755;-33.398;-70.572;2022-09-09T05:04:30;9.20;57.00
74336;DHT22;62755;-33.398;-70.572;2022-09-09T05:07:00;9.20;57.10
74336;DHT22;62755;-33.398;-70.572;2022-09-09T05:09:29;9.20;57.10
74336;DHT22;62755;-33.398;-70.572;2022-09-09T05:11:59;9.20;56.80
74336;DHT22;62755;-33.398;-70.572;2022-09-09T05:14:32;9.20;56.70
74336;DHT22;62755;-33.398;-70.572;2022-09-09T05:17:03;9.20;56.60
74336;DHT22;62755;-33.398;-70.572;2022-09-09T05:19:33;9.20;56.50
74336;DHT22;62755;-33.398;-70.572;2022-09-09T05:22:03;9.10;56.60
74336;DHT22;62755;-33.398;-70.572;2022-09-09T05:24:32;9.00;56.60
74336;DHT22;62755;-33.398;-70.572;2022-09-09T05:27:02;9.00;56.80
74336;DHT22;62755;-33.398;-70.572;2022-09-09T05:29:34;9.00;57.00
74336;DHT22;62755;-33.398;-70.572;2022-09-09T05:32:04;9.00;57.10
74336;DHT22;62755;-33.398;-70.572;2022-09-09T05:34:33;9.00;57.10
74336;DHT22;62755;-33.398;-70.572;2022-09-09T05:37:04;9.00;56.80
74336;DHT22;62755;-33.398;-70.572;2022-09-09T05:39:34;9.00;57.00
74336;DHT22;62755;-33.398;-70.572;2022-09-09T05:42:05;9.00;56.80
74336;DHT22;62755;-33.398;-70.572;2022-09-09T05:44:36;9.00;56.70
74336;DHT22;62755;-33.398;-70.572;2022-09-09T05:47:06;9.00;56.50
74336;DHT22;62755;-33.398;-70.572;2022-09-09T05:49:36;9.10;56.50
74336;DHT22;62755;-33.398;-70.572;2022-09-09T05:52:06;9.10;56.40
74336;DHT22;62755;-33.398;-70.572;2022-09-09T05:54:36;9.20;56.40
74336;DHT22;62755;-33.398;-70.572;2022-09-09T05:57:07;9.20;56.40
74336;DHT22;62755;-33.398;-70.572;2022-09-09T05:59:39;9.20;56.50
74336;DHT22;62755;-33.398;-70.572;2022-09-09T06:02:09;9.20;56.30
74336;DHT22;62755;-33.398;-70.572;2022-09-09T06:04:39;9.10;56.10
74336;DHT22;62755;-33.398;-70.572;2022-09-09T06:07:09;8.80;56.70
74336;DHT22;62755;-33.398;-70.572;2022-09-09T06:09:38;8.80;56.90
74336;DHT22;62755;-33.398;-70.572;2022-09-09T06:12:08;8.90;57.00
74336;DHT22;62755;-33.398;-70.572;2022-09-09T06:14:39;9.00;56.70
74336;DHT22;62755;-33.398;-70.572;2022-09-09T06:17:09;9.00;56.70
74336;DHT22;62755;-33.398;-70.572;2022-09-09T06:19:39;9.00;56.40
74336;DHT22;62755;-33.398;-70.572;2022-09-09T06:22:08;9.10;56.30
74336;DHT22;62755;-33.398;-70.572;2022-09-09T06:24:39;9.20;56.30
74336;DHT22;62755;-33.398;-70.572;2022-09-09T06:27:09;9.20;56.10
74336;DHT22;62755;-33.398;-70.572;2022-09-09T06:29:42;9.00;56.00
74336;DHT22;62755;-33.398;-70.572;2022-09-09T06:32:12;8.90;56.00
74336;DHT22;62755;-33.398;-70.572;2022-09-09T06:34:41;8.70;56.30
74336;DHT22;62755;-33.398;-70.572;2022-09-09T06:37:11;8.60;56.70
74336;DHT22;62755;-33.398;-70.572;2022-09-09T06:39:41;8.60;56.60
74336;DHT22;62755;-33.398;-70.572;2022-09-09T06:42:11;8.60;56.70
74336;DHT22;62755;-33.398;-70.572;2022-09-09T06:44:42;8.60;56.80
74336;DHT22;62755;-33.398;-70.572;2022-09-09T06:47:11;8.60;56.90
74336;DHT22;62755;-33.398;-70.572;2022-09-09T06:49:41;8.60;56.70
74336;DHT22;62755;-33.398;-70.572;2022-09-09T06:52:11;8.60;56.60
74336;DHT22;62755;-33.398;-70.572;2022-09-09T06:54:41;8.60;56.70
74336;DHT22;62755;-33.398;-70.572;2022-09-09T06:57:12;8.60;56.80
74336;DHT22;62755;-33.398;-70.572;2022-09-09T06:59:43;8.60;56.80
74336;DHT22;62755;-33.398;-70.572;2022-09-09T07:02:13;8.60;56.60
74336;DHT22;62755;-33.398;-70.572;2022-09-09T07:04:44;8.60;56.70
74336;DHT22;62755;-33.398;-70.572;2022-09-09T07:07:13;8.50;56.60
74336;DHT22;62755;-33.398;-70.572;2022-09-09T07:09:44;8.60;56.60
74336;DHT22;62755;-33.398;-70.572;2022-09-09T07:12:14;8.50;56.50
74336;DHT22;62755;-33.398;-70.572;2022-09-09T07:14:46;8.50;56.60
74336;DHT22;62755;-33.398;-70.572;2022-09-09T07:17:15;8.50;56.70
74336;DHT22;62755;-33.398;-70.572;2022-09-09T07:19:45;8.40;56.80
74336;DHT22;62755;-33.398;-70.572;2022-09-09T07:22:15;8.40;56.80
74336;DHT22;62755;-33.398;-70.572;2022-09-09T07:24:44;8.40;56.90
74336;DHT22;62755;-33.398;-70.572;2022-09-09T07:27:14;8.50;56.80
74336;DHT22;62755;-33.398;-70.572;2022-09-09T07:29:45;8.60;56.70
74336;DHT22;62755;-33.398;-70.572;2022-09-09T07:32:15;8.60;56.50
74336;DHT22;62755;-33.398;-70.572;2022-09-09T07:34:47;8.60;56.60
74336;DHT22;62755;-33.398;-70.572;2022-09-09T07:37:17;8.60;56.50
74336;DHT22;62755;-33.398;-70.572;2022-09-09T07:39:48;8.60;56.70
74336;DHT22;62755;-33.398;-70.572;2022-09-09T07:42:18;8.60;56.60
74336;DHT22;62755;-33.398;-70.572;2022-09-09T07:44:49;8.50;56.40
74336;DHT22;62755;-33.398;-70.572;2022-09-09T07:47:21;8.50;56.70
74336;DHT22;62755;-33.398;-70.572;2022-09-09T07:49:51;8.50;56.60
74336;DHT22;62755;-33.398;-70.572;2022-09-09T07:52:21;8.40;56.90
74336;DHT22;62755;-33.398;-70.572;2022-09-09T07:54:51;8.40;56.90
74336;DHT22;62755;-33.398;-70.572;2022-09-09T07:57:21;8.40;56.90
74336;DHT22;62755;-33.398;-70.572;2022-09-09T07:59:52;8.40;56.80
74336;DHT22;62755;-33.398;-70.572;2022-09-09T08:02:23;8.50;56.60
74336;DHT22;62755;-33.398;-70.572;2022-09-09T08:04:55;8.50;56.50
74336;DHT22;62755;-33.398;-70.572;2022-09-09T08:07:24;8.40;56.30
74336;DHT22;62755;-33.398;-70.572;2022-09-09T08:09:54;8.40;56.30
74336;DHT22;62755;-33.398;-70.572;2022-09-09T08:12:24;8.50;56.20
74336;DHT22;62755;-33.398;-70.572;2022-09-09T08:14:55;8.40;56.00
74336;DHT22;62755;-33.398;-70.572;2022-09-09T08:17:25;8.40;56.20
74336;DHT22;62755;-33.398;-70.572;2022-09-09T08:19:55;8.40;56.20
74336;DHT22;62755;-33.398;-70.572;2022-09-09T08:22:25;8.30;55.90
74336;DHT22;62755;-33.398;-70.572;2022-09-09T08:24:55;8.20;56.20
74336;DHT22;62755;-33.398;-70.572;2022-09-09T08:27:25;8.20;56.30
74336;DHT22;62755;-33.398;-70.572;2022-09-09T08:29:56;8.20;56.40
74336;DHT22;62755;-33.398;-70.572;2022-09-09T08:32:26;8.20;56.30
74336;DHT22;62755;-33.398;-70.572;2022-09-09T08:34:55;8.20;56.30
74336;DHT22;62755;-33.398;-70.572;2022-09-09T08:37:25;8.20;56.30
74336;DHT22;62755;-33.398;-70.572;2022-09-09T08:39:54;8.20;56.60
74336;DHT22;62755;-33.398;-70.572;2022-09-09T08:42:39;8.10;56.40
74336;DHT22;62755;-33.398;-70.572;2022-09-09T08:45:25;8.10;56.50
74336;DHT22;62755;-33.398;-70.572;2022-09-09T08:48:15;8.10;56.50
74336;DHT22;62755;-33.398;-70.572;2022-09-09T08:50:50;8.10;56.50
74336;DHT22;62755;-33.398;-70.572;2022-09-09T08:53:22;8.20;56.30
74336;DHT22;62755;-33.398;-70.572;2022-09-09T08:55:53;8.20;56.20
74336;DHT22;62755;-33.398;-70.572;2022-09-09T08:58:27;8.20;56.10
74336;DHT22;62755;-33.398;-70.572;2022-09-09T09:01:19;8.20;56.10
74336;DHT22;62755;-33.398;-70.572;2022-09-09T09:03:55;8.20;56.30
74336;DHT22;62755;-33.398;-70.572;2022-09-09T09:06:41;8.20;56.00
74336;DHT22;62755;-33.398;-70.572;2022-09-09T09:09:21;8.20;56.00
74336;DHT22;62755;-33.398;-70.572;2022-09-09T09:11:55;8.20;56.10
74336;DHT22;62755;-33.398;-70.572;2022-09-09T09:14:29;8.20;56.10
74336;DHT22;62755;-33.398;-70.572;2022-09-09T09:17:05;8.10;56.00
74336;DHT22;62755;-33.398;-70.572;2022-09-09T09:19:38;8.10;56.10
74336;DHT22;62755;-33.398;-70.572;2022-09-09T09:22:17;8.10;56.10
74336;DHT22;62755;-33.398;-70.572;2022-09-09T09:24:52;8.10;56.10
74336;DHT22;62755;-33.398;-70.572;2022-09-09T09:27:30;8.10;56.00
74336;DHT22;62755;-33.398;-70.572;2022-09-09T09:30:02;8.10;56.10
74336;DHT22;62755;-33.398;-70.572;2022-09-09T09:32:37;8.10;56.00
74336;DHT22;62755;-33.398;-70.572;2022-09-09T09:35:12;8.10;56.10
74336;DHT22;62755;-33.398;-70.572;2022-09-09T09:37:42;8.00;56.10
74336;DHT22;62755;-33.398;-70.572;2022-09-09T09:40:14;8.00;56.00
74336;DHT22;62755;-33.398;-70.572;2022-09-09T09:42:53;8.00;56.20
74336;DHT22;62755;-33.398;-70.572;2022-09-09T09:45:29;8.00;56.20
74336;DHT22;62755;-33.398;-70.572;2022-09-09T09:48:04;8.00;56.40
74336;DHT22;62755;-33.398;-70.572;2022-09-09T09:50:35;8.00;56.10
74336;DHT22;62755;-33.398;-70.572;2022-09-09T09:53:20;8.00;56.20
74336;DHT22;62755;-33.398;-70.572;2022-09-09T09:55:55;8.00;56.30
74336;DHT22;62755;-33.398;-70.572;2022-09-09T09:58:27;8.00;56.50
74336;DHT22;62755;-33.398;-70.572;2022-09-09T10:00:58;8.00;56.30
74336;DHT22;62755;-33.398;-70.572;2022-09-09T10:03:31;8.00;56.20
74336;DHT22;62755;-33.398;-70.572;2022-09-09T10:06:04;8.00;56.20
74336;DHT22;62755;-33.398;-70.572;2022-09-09T10:08:43;8.00;56.20
74336;DHT22;62755;-33.398;-70.572;2022-09-09T10:11:25;8.00;55.80
74336;DHT22;62755;-33.398;-70.572;2022-09-09T10:14:02;8.00;56.00
74336;DHT22;62755;-33.398;-70.572;2022-09-09T10:16:45;8.00;56.10
74336;DHT22;62755;-33.398;-70.572;2022-09-09T10:19:26;8.00;55.90
74336;DHT22;62755;-33.398;-70.572;2022-09-09T10:22:05;7.80;56.00
74336;DHT22;62755;-33.398;-70.572;2022-09-09T10:25:05;7.80;56.20
74336;DHT22;62755;-33.398;-70.572;2022-09-09T10:27:45;7.80;56.30
74336;DHT22;62755;-33.398;-70.572;2022-09-09T10:30:26;7.70;56.40
74336;DHT22;62755;-33.398;-70.572;2022-09-09T10:33:07;7.80;56.40
74336;DHT22;62755;-33.398;-70.572;2022-09-09T10:35:47;7.80;56.30
74336;DHT22;62755;-33.398;-70.572;2022-09-09T10:38:21;7.70;56.10
74336;DHT22;62755;-33.398;-70.572;2022-09-09T10:41:13;7.60;56.20
74336;DHT22;62755;-33.398;-70.572;2022-09-09T10:46:55;7.60;56.80
74336;DHT22;62755;-33.398;-70.572;2022-09-09T10:49:41;7.60;56.60
74336;DHT22;62755;-33.398;-70.572;2022-09-09T10:52:19;7.60;56.40
74336;DHT22;62755;-33.398;-70.572;2022-09-09T10:54:55;7.60;56.20
74336;DHT22;62755;-33.398;-70.572;2022-09-09T10:57:31;7.50;56.60
74336;DHT22;62755;-33.398;-70.572;2022-09-09T11:00:06;7.50;56.60
74336;DHT22;62755;-33.398;-70.572;2022-09-09T11:02:36;7.40;56.90
74336;DHT22;62755;-33.398;-70.572;2022-09-09T11:05:16;7.50;57.00
74336;DHT22;62755;-33.398;-70.572;2022-09-09T11:07:52;7.50;57.40
74336;DHT22;62755;-33.398;-70.572;2022-09-09T11:10:34;7.50;57.40
74336;DHT22;62755;-33.398;-70.572;2022-09-09T11:13:11;7.50;57.10
74336;DHT22;62755;-33.398;-70.572;2022-09-09T11:15:44;7.50;57.30
74336;DHT22;62755;-33.398;-70.572;2022-09-09T11:18:17;7.50;57.20
74336;DHT22;62755;-33.398;-70.572;2022-09-09T11:20:50;7.60;57.20
74336;DHT22;62755;-33.398;-70.572;2022-09-09T11:23:27;7.60;57.00
74336;DHT22;62755;-33.398;-70.572;2022-09-09T11:26:00;7.60;57.00
74336;DHT22;62755;-33.398;-70.572;2022-09-09T11:28:43;7.70;57.00
74336;DHT22;62755;-33.398;-70.572;2022-09-09T11:31:26;7.80;57.00
74336;DHT22;62755;-33.398;-70.572;2022-09-09T11:34:10;7.80;56.80
74336;DHT22;62755;-33.398;-70.572;2022-09-09T11:37:04;7.70;57.20
74336;DHT22;62755;-33.398;-70.572;2022-09-09T11:39:54;7.70;57.00
74336;DHT22;62755;-33.398;-70.572;2022-09-09T11:42:27;7.70;56.90
74336;DHT22;62755;-33.398;-70.572;2022-09-09T11:44:56;7.80;56.70
74336;DHT22;62755;-33.398;-70.572;2022-09-09T11:47:27;7.80;56.40
74336;DHT22;62755;-33.398;-70.572;2022-09-09T11:50:09;7.80;56.40
74336;DHT22;62755;-33.398;-70.572;2022-09-09T11:52:41;7.90;56.50
74336;DHT22;62755;-33.398;-70.572;2022-09-09T11:55:33;8.00;56.60
74336;DHT22;62755;-33.398;-70.572;2022-09-09T11:58:04;8.00;56.70
74336;DHT22;62755;-33.398;-70.572;2022-09-09T12:00:36;8.10;56.20
74336;DHT22;62755;-33.398;-70.572;2022-09-09T12:03:08;8.10;56.20
74336;DHT22;62755;-33.398;-70.572;2022-09-09T12:06:08;7.90;56.50
74336;DHT22;62755;-33.398;-70.572;2022-09-09T12:08:44;7.50;57.50
74336;DHT22;62755;-33.398;-70.572;2022-09-09T12:11:24;7.50;58.30
74336;DHT22;62755;-33.398;-70.572;2022-09-09T12:13:57;7.60;58.40
74336;DHT22;62755;-33.398;-70.572;2022-09-09T12:16:34;7.80;57.80
74336;DHT22;62755;-33.398;-70.572;2022-09-09T12:19:12;8.00;57.70
74336;DHT22;62755;-33.398;-70.572;2022-09-09T12:21:50;8.10;57.30
74336;DHT22;62755;-33.398;-70.572;2022-09-09T12:24:26;8.20;57.00
74336;DHT22;62755;-33.398;-70.572;2022-09-09T12:27:04;8.20;57.10
74336;DHT22;62755;-33.398;-70.572;2022-09-09T12:29:41;8.40;57.10
74336;DHT22;62755;-33.398;-70.572;2022-09-09T12:32:17;8.40;57.20
74336;DHT22;62755;-33.398;-70.572;2022-09-09T12:34:52;8.40;56.90
74336;DHT22;62755;-33.398;-70.572;2022-09-09T12:37:31;8.50;56.80
74336;DHT22;62755;-33.398;-70.572;2022-09-09T12:40:05;8.60;57.20
74336;DHT22;62755;-33.398;-70.572;2022-09-09T12:42:40;8.60;56.90
74336;DHT22;62755;-33.398;-70.572;2022-09-09T12:45:17;8.60;56.90
74336;DHT22;62755;-33.398;-70.572;2022-09-09T12:47:50;8.80;56.70
74336;DHT22;62755;-33.398;-70.572;2022-09-09T12:50:22;8.80;56.90
74336;DHT22;62755;-33.398;-70.572;2022-09-09T12:52:53;8.80;57.00
74336;DHT22;62755;-33.398;-70.572;2022-09-09T12:55:27;8.90;57.00
74336;DHT22;62755;-33.398;-70.572;2022-09-09T12:57:59;8.90;57.20
74336;DHT22;62755;-33.398;-70.572;2022-09-09T13:00:32;9.00;57.10
74336;DHT22;62755;-33.398;-70.572;2022-09-09T13:03:03;9.10;56.50
74336;DHT22;62755;-33.398;-70.572;2022-09-09T13:05:43;9.20;56.40
74336;DHT22;62755;-33.398;-70.572;2022-09-09T13:08:14;9.20;56.30
74336;DHT22;62755;-33.398;-70.572;2022-09-09T13:10:49;9.20;56.20
74336;DHT22;62755;-33.398;-70.572;2022-09-09T13:13:25;9.30;56.10
74336;DHT22;62755;-33.398;-70.572;2022-09-09T13:15:58;9.40;55.80
74336;DHT22;62755;-33.398;-70.572;2022-09-09T13:18:29;9.40;55.70
74336;DHT22;62755;-33.398;-70.572;2022-09-09T13:21:01;9.40;56.10
74336;DHT22;62755;-33.398;-70.572;2022-09-09T13:23:32;9.50;55.90
74336;DHT22;62755;-33.398;-70.572;2022-09-09T13:26:03;9.50;56.20
74336;DHT22;62755;-33.398;-70.572;2022-09-09T13:28:35;9.50;55.90
74336;DHT22;62755;-33.398;-70.572;2022-09-09T13:31:06;9.50;56.20
74336;DHT22;62755;-33.398;-70.572;2022-09-09T13:33:48;9.60;55.80
74336;DHT22;62755;-33.398;-70.572;2022-09-09T13:36:29;9.60;55.80
74336;DHT22;62755;-33.398;-70.572;2022-09-09T13:38:59;9.70;55.80
74336;DHT22;62755;-33.398;-70.572;2022-09-09T13:41:32;9.80;55.80
74336;DHT22;62755;-33.398;-70.572;2022-09-09T13:44:05;9.80;55.70
74336;DHT22;62755;-33.398;-70.572;2022-09-09T13:46:36;10.00;55.30
74336;DHT22;62755;-33.398;-70.572;2022-09-09T13:49:20;10.00;55.20
74336;DHT22;62755;-33.398;-70.572;2022-09-09T13:51:51;10.00;55.00
74336;DHT22;62755;-33.398;-70.572;2022-09-09T13:54:21;10.10;54.80
74336;DHT22;62755;-33.398;-70.572;2022-09-09T13:56:51;10.10;54.30
74336;DHT22;62755;-33.398;-70.572;2022-09-09T13:59:23;10.10;54.80
74336;DHT22;62755;-33.398;-70.572;2022-09-09T14:01:54;10.20;54.60
74336;DHT22;62755;-33.398;-70.572;2022-09-09T14:04:24;10.20;54.10
74336;DHT22;62755;-33.398;-70.572;2022-09-09T14:06:54;10.30;54.50
74336;DHT22;62755;-33.398;-70.572;2022-09-09T14:09:24;10.40;54.50
74336;DHT22;62755;-33.398;-70.572;2022-09-09T14:11:54;10.40;53.80
74336;DHT22;62755;-33.398;-70.572;2022-09-09T14:14:25;10.50;53.30
74336;DHT22;62755;-33.398;-70.572;2022-09-09T14:16:55;10.50;54.10
74336;DHT22;62755;-33.398;-70.572;2022-09-09T14:19:24;10.70;54.70
74336;DHT22;62755;-33.398;-70.572;2022-09-09T14:21:54;11.10;56.60
74336;DHT22;62755;-33.398;-70.572;2022-09-09T14:24:24;12.10;57.60
74336;DHT22;62755;-33.398;-70.572;2022-09-09T14:26:55;13.90;56.40
74336;DHT22;62755;-33.398;-70.572;2022-09-09T14:29:26;16.40;51.00
74336;DHT22;62755;-33.398;-70.572;2022-09-09T14:31:56;18.90;43.00
74336;DHT22;62755;-33.398;-70.572;2022-09-09T14:34:28;20.80;41.30
74336;DHT22;62755;-33.398;-70.572;2022-09-09T14:36:59;22.10;37.10
74336;DHT22;62755;-33.398;-70.572;2022-09-09T14:39:29;23.40;36.30
74336;DHT22;62755;-33.398;-70.572;2022-09-09T14:41:58;24.60;34.30
74336;DHT22;62755;-33.398;-70.572;2022-09-09T14:44:30;25.50;32.70
74336;DHT22;62755;-33.398;-70.572;2022-09-09T14:47:00;26.10;30.10
74336;DHT22;62755;-33.398;-70.572;2022-09-09T14:49:31;26.50;30.10
74336;DHT22;62755;-33.398;-70.572;2022-09-09T14:52:01;27.10;29.50
74336;DHT22;62755;-33.398;-70.572;2022-09-09T14:54:31;27.70;28.80
74336;DHT22;62755;-33.398;-70.572;2022-09-09T14:57:01;28.30;28.00
74336;DHT22;62755;-33.398;-70.572;2022-09-09T14:59:32;28.50;27.50
74336;DHT22;62755;-33.398;-70.572;2022-09-09T15:02:02;28.90;26.80
74336;DHT22;62755;-33.398;-70.572;2022-09-09T15:04:32;28.90;26.70
74336;DHT22;62755;-33.398;-70.572;2022-09-09T15:07:02;28.70;26.60
74336;DHT22;62755;-33.398;-70.572;2022-09-09T15:09:32;28.30;26.70
74336;DHT22;62755;-33.398;-70.572;2022-09-09T15:12:01;27.70;26.80
74336;DHT22;62755;-33.398;-70.572;2022-09-09T15:14:33;26.80;27.30
74336;DHT22;62755;-33.398;-70.572;2022-09-09T15:17:03;26.30;27.30
74336;DHT22;62755;-33.398;-70.572;2022-09-09T15:19:33;25.80;28.00
74336;DHT22;62755;-33.398;-70.572;2022-09-09T15:22:03;25.10;28.70
74336;DHT22;62755;-33.398;-70.572;2022-09-09T15:24:34;24.30;29.70
74336;DHT22;62755;-33.398;-70.572;2022-09-09T15:27:05;23.50;30.00
74336;DHT22;62755;-33.398;-70.572;2022-09-09T15:29:36;22.80;31.00
74336;DHT22;62755;-33.398;-70.572;2022-09-09T15:32:06;22.50;31.30
74336;DHT22;62755;-33.398;-70.572;2022-09-09T15:34:36;22.20;31.60
74336;DHT22;62755;-33.398;-70.572;2022-09-09T15:37:05;21.90;31.80
74336;DHT22;62755;-33.398;-70.572;2022-09-09T15:39:35;21.80;32.20